Terminal Aerodrome Forecast
Issued by NWS

Home | Current Version | Previous Version | Text Only | Print | Product List | Glossary On
Versions: 1 2 3 4 5 6 7 8 9 10 11 12 13 14
000
FTUS41 KRNK 262330
TAFLWB
TAF
KLWB 262330Z 2700/2724 30006KT P6SM SCT070
     FM270900 VRB03KT P6SM BKN130
     FM271400 29008G16KT P6SM BKN060
     FM272100 30007KT P6SM SCT070=

USA.gov is the U.S. government's official web portal to all federal, state and local government web resources and services.